sensor_id;sensor_type;location;lat;lon;timestamp;P1;durP1;ratioP1;P2;durP2;ratioP2
60865;SDS011;46701;51.558;-0.448;2022-07-29T00:02:59;4.6;;;1.3;;
60865;SDS011;46701;51.558;-0.448;2022-07-29T00:04:59;3.4;;;1;;
60865;SDS011;46701;51.558;-0.448;2022-07-29T00:08:00;3.1;;;1.2;;
60865;SDS011;46701;51.558;-0.448;2022-07-29T00:11:01;2.5;;;1;;
60865;SDS011;46701;51.558;-0.448;2022-07-29T00:14:02;2.8;;;1;;
60865;SDS011;46701;51.558;-0.448;2022-07-29T00:17:03;2.6;;;1.1;;
60865;SDS011;46701;51.558;-0.448;2022-07-29T00:20:05;4.5;;;1.3;;
60865;SDS011;46701;51.558;-0.448;2022-07-29T00:23:05;2.7;;;1.1;;
60865;SDS011;46701;51.558;-0.448;2022-07-29T00:26:06;3.3;;;1.2;;
60865;SDS011;46701;51.558;-0.448;2022-07-29T00:29:07;4.3;;;1.2;;
60865;SDS011;46701;51.558;-0.448;2022-07-29T00:32:08;4.3;;;1.1;;
60865;SDS011;46701;51.558;-0.448;2022-07-29T00:35:09;2.2;;;0.9;;
60865;SDS011;46701;51.558;-0.448;2022-07-29T00:38:11;2.6;;;1;;
60865;SDS011;46701;51.558;-0.448;2022-07-29T00:41:11;2.2;;;1;;
60865;SDS011;46701;51.558;-0.448;2022-07-29T00:44:12;2.6;;;1;;
60865;SDS011;46701;51.558;-0.448;2022-07-29T00:47:13;2.7;;;1.1;;
60865;SDS011;46701;51.558;-0.448;2022-07-29T00:50:14;2.2;;;1;;
60865;SDS011;46701;51.558;-0.448;2022-07-29T00:53:15;2.8;;;1.1;;
60865;SDS011;46701;51.558;-0.448;2022-07-29T00:56:16;2.3;;;1;;
60865;SDS011;46701;51.558;-0.448;2022-07-29T00:59:17;3;;;1;;
60865;SDS011;46701;51.558;-0.448;2022-07-29T01:02:18;2.2;;;1;;
60865;SDS011;46701;51.558;-0.448;2022-07-29T01:05:20;2.5;;;0.8;;
60865;SDS011;46701;51.558;-0.448;2022-07-29T01:08:20;2.6;;;0.9;;
60865;SDS011;46701;51.558;-0.448;2022-07-29T01:11:21;2.8;;;0.8;;
60865;SDS011;46701;51.558;-0.448;2022-07-29T01:14:22;1.9;;;0.9;;
60865;SDS011;46701;51.558;-0.448;2022-07-29T01:17:24;2;;;1;;
60865;SDS011;46701;51.558;-0.448;2022-07-29T01:20:26;1.7;;;0.7;;
60865;SDS011;46701;51.558;-0.448;2022-07-29T01:23:34;3;;;1;;
60865;SDS011;46701;51.558;-0.448;2022-07-29T01:24:07;3;;;1;;
60865;SDS011;46701;51.558;-0.448;2022-07-29T01:24:19;3;;;1;;
60865;SDS011;46701;51.558;-0.448;2022-07-29T01:24:30;3;;;1;;
60865;SDS011;46701;51.558;-0.448;2022-07-29T01:24:30;3;;;1;;
60865;SDS011;46701;51.558;-0.448;2022-07-29T01:24:33;3;;;1;;
60865;SDS011;46701;51.558;-0.448;2022-07-29T01:26:32;2.2;;;0.8;;
60865;SDS011;46701;51.558;-0.448;2022-07-29T01:26:55;2.2;;;0.8;;
60865;SDS011;46701;51.558;-0.448;2022-07-29T01:29:28;2.5;;;0.9;;
60865;SDS011;46701;51.558;-0.448;2022-07-29T01:32:29;1.9;;;1;;
60865;SDS011;46701;51.558;-0.448;2022-07-29T01:35:31;3.3;;;0.9;;
60865;SDS011;46701;51.558;-0.448;2022-07-29T01:38:30;2;;;0.9;;
60865;SDS011;46701;51.558;-0.448;2022-07-29T01:41:32;2;;;0.8;;
60865;SDS011;46701;51.558;-0.448;2022-07-29T01:44:33;3.3;;;0.9;;
60865;SDS011;46701;51.558;-0.448;2022-07-29T01:47:35;2.6;;;0.9;;
60865;SDS011;46701;51.558;-0.448;2022-07-29T01:50:35;1.5;;;0.6;;
60865;SDS011;46701;51.558;-0.448;2022-07-29T01:53:36;2.8;;;0.9;;
60865;SDS011;46701;51.558;-0.448;2022-07-29T01:56:36;1.7;;;0.8;;
60865;SDS011;46701;51.558;-0.448;2022-07-29T01:59:37;1.7;;;0.8;;
60865;SDS011;46701;51.558;-0.448;2022-07-29T02:01:38;1.6;;;0.7;;
60865;SDS011;46701;51.558;-0.448;2022-07-29T02:04:39;2.6;;;0.8;;
60865;SDS011;46701;51.558;-0.448;2022-07-29T02:07:40;1.7;;;0.7;;
60865;SDS011;46701;51.558;-0.448;2022-07-29T02:10:41;2.4;;;1;;
60865;SDS011;46701;51.558;-0.448;2022-07-29T02:13:42;1.3;;;0.7;;
60865;SDS011;46701;51.558;-0.448;2022-07-29T02:16:43;1.4;;;0.8;;
60865;SDS011;46701;51.558;-0.448;2022-07-29T02:19:43;1.6;;;0.7;;
60865;SDS011;46701;51.558;-0.448;2022-07-29T02:22:45;1;;;0.5;;
60865;SDS011;46701;51.558;-0.448;2022-07-29T02:25:46;1.1;;;0.6;;
60865;SDS011;46701;51.558;-0.448;2022-07-29T02:28:47;1.8;;;0.7;;
60865;SDS011;46701;51.558;-0.448;2022-07-29T02:31:48;1.8;;;0.7;;
60865;SDS011;46701;51.558;-0.448;2022-07-29T02:34:49;2.7;;;0.7;;
60865;SDS011;46701;51.558;-0.448;2022-07-29T02:37:50;1.7;;;0.8;;
60865;SDS011;46701;51.558;-0.448;2022-07-29T02:40:51;1.9;;;0.6;;
60865;SDS011;46701;51.558;-0.448;2022-07-29T02:43:53;1.4;;;0.6;;
60865;SDS011;46701;51.558;-0.448;2022-07-29T02:46:53;1.8;;;0.8;;
60865;SDS011;46701;51.558;-0.448;2022-07-29T02:49:55;1;;;0.6;;
60865;SDS011;46701;51.558;-0.448;2022-07-29T02:52:56;1.8;;;0.6;;
60865;SDS011;46701;51.558;-0.448;2022-07-29T02:55:56;1.9;;;0.6;;
60865;SDS011;46701;51.558;-0.448;2022-07-29T02:58:58;1.1;;;0.7;;
60865;SDS011;46701;51.558;-0.448;2022-07-29T03:01:58;1.7;;;0.8;;
60865;SDS011;46701;51.558;-0.448;2022-07-29T03:04:58;1.2;;;0.6;;
60865;SDS011;46701;51.558;-0.448;2022-07-29T03:08:00;1.9;;;0.8;;
60865;SDS011;46701;51.558;-0.448;2022-07-29T03:11:01;2.2;;;0.7;;
60865;SDS011;46701;51.558;-0.448;2022-07-29T03:14:02;1.2;;;0.5;;
60865;SDS011;46701;51.558;-0.448;2022-07-29T03:17:02;2.3;;;0.8;;
60865;SDS011;46701;51.558;-0.448;2022-07-29T03:20:04;1;;;0.5;;
60865;SDS011;46701;51.558;-0.448;2022-07-29T03:23:04;1.5;;;0.8;;
60865;SDS011;46701;51.558;-0.448;2022-07-29T03:26:05;2;;;0.6;;
60865;SDS011;46701;51.558;-0.448;2022-07-29T03:29:06;1.1;;;0.7;;
60865;SDS011;46701;51.558;-0.448;2022-07-29T03:32:08;1.1;;;0.6;;
60865;SDS011;46701;51.558;-0.448;2022-07-29T03:35:09;1.5;;;0.6;;
60865;SDS011;46701;51.558;-0.448;2022-07-29T03:38:09;1.9;;;0.6;;
60865;SDS011;46701;51.558;-0.448;2022-07-29T03:41:11;1.4;;;0.6;;
60865;SDS011;46701;51.558;-0.448;2022-07-29T03:44:11;1.5;;;0.6;;
60865;SDS011;46701;51.558;-0.448;2022-07-29T03:47:13;1.4;;;0.5;;
60865;SDS011;46701;51.558;-0.448;2022-07-29T03:50:14;1.6;;;0.8;;
60865;SDS011;46701;51.558;-0.448;2022-07-29T03:53:14;1.2;;;0.6;;
60865;SDS011;46701;51.558;-0.448;2022-07-29T03:56:15;1.5;;;0.6;;
60865;SDS011;46701;51.558;-0.448;2022-07-29T03:59:16;1.2;;;0.6;;
60865;SDS011;46701;51.558;-0.448;2022-07-29T04:01:17;1.7;;;0.6;;
60865;SDS011;46701;51.558;-0.448;2022-07-29T04:04:18;1.1;;;0.6;;
60865;SDS011;46701;51.558;-0.448;2022-07-29T04:07:19;1.3;;;0.6;;
60865;SDS011;46701;51.558;-0.448;2022-07-29T04:10:20;1.3;;;0.6;;
60865;SDS011;46701;51.558;-0.448;2022-07-29T04:13:21;1.3;;;0.6;;
60865;SDS011;46701;51.558;-0.448;2022-07-29T04:16:22;1.4;;;0.7;;
60865;SDS011;46701;51.558;-0.448;2022-07-29T04:19:23;1.1;;;0.6;;
60865;SDS011;46701;51.558;-0.448;2022-07-29T04:22:24;0.9;;;0.5;;
60865;SDS011;46701;51.558;-0.448;2022-07-29T04:25:25;2;;;0.5;;
60865;SDS011;46701;51.558;-0.448;2022-07-29T04:28:26;1.5;;;0.6;;
60865;SDS011;46701;51.558;-0.448;2022-07-29T04:31:27;1.6;;;0.6;;
60865;SDS011;46701;51.558;-0.448;2022-07-29T04:34:28;1.2;;;0.6;;
60865;SDS011;46701;51.558;-0.448;2022-07-29T04:37:29;1.1;;;0.6;;
60865;SDS011;46701;51.558;-0.448;2022-07-29T04:40:30;0.9;;;0.5;;
60865;SDS011;46701;51.558;-0.448;2022-07-29T04:43:31;1.4;;;0.7;;
60865;SDS011;46701;51.558;-0.448;2022-07-29T04:46:32;1.3;;;0.5;;
60865;SDS011;46701;51.558;-0.448;2022-07-29T04:49:33;0.8;;;0.5;;
60865;SDS011;46701;51.558;-0.448;2022-07-29T04:52:34;1.6;;;0.5;;
60865;SDS011;46701;51.558;-0.448;2022-07-29T04:55:35;1.1;;;0.6;;
60865;SDS011;46701;51.558;-0.448;2022-07-29T04:58:36;1.8;;;0.6;;
60865;SDS011;46701;51.558;-0.448;2022-07-29T05:01:37;0.9;;;0.5;;
